Terminal Aerodrome Forecast
Issued by NWS Pocatello, ID

Home | Current Version | Previous Version | Text Only | Print | Product List | Glossary On
Versions: 1 2 3 4 5 6 7 8 9 10 11 12 13 14 15 16 17 18 19 20 21 22
000
FTUS45 KPIH 281800 AAA
TAFBYI
TAF AMD
KBYI 281859Z 2819/2918 27014G25KT P6SM FEW030 BKN120
     FM290200 24011KT P6SM BKN025 OVC035
      TEMPO 2902/2906 4SM -SN OVC015
     FM291200 24008KT P6SM OVC015=

USA.gov is the U.S. government's official web portal to all federal, state and local government web resources and services.